sensor_id;sensor_type;location;lat;lon;timestamp;temperature;humidity
41922;DHT22;27609;51.002;5.354;2023-05-17T00:00:07;9.00;99.90
41922;DHT22;27609;51.002;5.354;2023-05-17T00:02:34;8.90;99.90
41922;DHT22;27609;51.002;5.354;2023-05-17T00:05:00;8.80;99.90
41922;DHT22;27609;51.002;5.354;2023-05-17T00:07:26;8.80;99.90
41922;DHT22;27609;51.002;5.354;2023-05-17T00:09:52;8.70;99.90
41922;DHT22;27609;51.002;5.354;2023-05-17T00:12:17;8.70;99.90
41922;DHT22;27609;51.002;5.354;2023-05-17T00:14:43;8.70;99.90
41922;DHT22;27609;51.002;5.354;2023-05-17T00:17:09;8.70;99.90
41922;DHT22;27609;51.002;5.354;2023-05-17T00:19:34;8.80;99.90
41922;DHT22;27609;51.002;5.354;2023-05-17T00:22:00;8.70;99.90
41922;DHT22;27609;51.002;5.354;2023-05-17T00:24:26;8.80;99.90
41922;DHT22;27609;51.002;5.354;2023-05-17T00:26:52;8.80;99.90
41922;DHT22;27609;51.002;5.354;2023-05-17T00:29:17;8.70;99.90
41922;DHT22;27609;51.002;5.354;2023-05-17T00:31:43;8.50;99.90
41922;DHT22;27609;51.002;5.354;2023-05-17T00:34:09;8.60;99.90
41922;DHT22;27609;51.002;5.354;2023-05-17T00:36:34;8.50;99.90
41922;DHT22;27609;51.002;5.354;2023-05-17T00:39:00;8.40;99.90
41922;DHT22;27609;51.002;5.354;2023-05-17T00:41:26;8.30;99.90
41922;DHT22;27609;51.002;5.354;2023-05-17T00:43:52;8.40;99.90
41922;DHT22;27609;51.002;5.354;2023-05-17T00:46:17;8.40;99.90
41922;DHT22;27609;51.002;5.354;2023-05-17T00:48:43;8.40;99.90
41922;DHT22;27609;51.002;5.354;2023-05-17T00:51:09;8.30;99.90
41922;DHT22;27609;51.002;5.354;2023-05-17T00:53:35;8.30;99.90
41922;DHT22;27609;51.002;5.354;2023-05-17T00:56:02;8.30;99.90
41922;DHT22;27609;51.002;5.354;2023-05-17T00:58:28;8.40;99.90
41922;DHT22;27609;51.002;5.354;2023-05-17T01:00:55;8.30;99.90
41922;DHT22;27609;51.002;5.354;2023-05-17T01:03:20;8.30;99.90
41922;DHT22;27609;51.002;5.354;2023-05-17T01:05:48;8.30;99.90
41922;DHT22;27609;51.002;5.354;2023-05-17T01:08:14;8.30;99.90
41922;DHT22;27609;51.002;5.354;2023-05-17T01:11:24;8.00;99.90
41922;DHT22;27609;51.002;5.354;2023-05-17T01:13:57;7.80;99.90
41922;DHT22;27609;51.002;5.354;2023-05-17T01:16:37;7.80;99.90
41922;DHT22;27609;51.002;5.354;2023-05-17T01:22:26;8.00;99.90
41922;DHT22;27609;51.002;5.354;2023-05-17T01:27:22;7.90;99.90
41922;DHT22;27609;51.002;5.354;2023-05-17T01:29:49;7.90;99.90
41922;DHT22;27609;51.002;5.354;2023-05-17T01:32:17;7.90;99.90
41922;DHT22;27609;51.002;5.354;2023-05-17T01:34:43;7.90;99.90
41922;DHT22;27609;51.002;5.354;2023-05-17T01:37:09;7.80;99.90
41922;DHT22;27609;51.002;5.354;2023-05-17T01:39:35;7.80;99.90
41922;DHT22;27609;51.002;5.354;2023-05-17T01:42:06;7.70;99.90
41922;DHT22;27609;51.002;5.354;2023-05-17T01:44:39;7.70;99.90
41922;DHT22;27609;51.002;5.354;2023-05-17T01:50:14;7.90;99.90
41922;DHT22;27609;51.002;5.354;2023-05-17T01:52:51;7.80;99.90
41922;DHT22;27609;51.002;5.354;2023-05-17T01:57:56;7.80;99.90
41922;DHT22;27609;51.002;5.354;2023-05-17T02:00:24;7.70;99.90
41922;DHT22;27609;51.002;5.354;2023-05-17T02:02:52;7.70;99.90
41922;DHT22;27609;51.002;5.354;2023-05-17T02:05:18;7.80;99.90
41922;DHT22;27609;51.002;5.354;2023-05-17T02:07:43;7.70;99.90
41922;DHT22;27609;51.002;5.354;2023-05-17T02:10:09;7.70;99.90
41922;DHT22;27609;51.002;5.354;2023-05-17T02:12:35;7.70;99.90
41922;DHT22;27609;51.002;5.354;2023-05-17T02:15:01;7.70;99.90
41922;DHT22;27609;51.002;5.354;2023-05-17T02:17:27;7.70;99.90
41922;DHT22;27609;51.002;5.354;2023-05-17T02:19:52;7.60;99.90
41922;DHT22;27609;51.002;5.354;2023-05-17T02:22:18;7.50;99.90
41922;DHT22;27609;51.002;5.354;2023-05-17T02:24:44;7.40;99.90
41922;DHT22;27609;51.002;5.354;2023-05-17T02:27:11;7.10;99.90
41922;DHT22;27609;51.002;5.354;2023-05-17T02:29:36;6.80;99.90
41922;DHT22;27609;51.002;5.354;2023-05-17T02:32:02;6.90;99.90
41922;DHT22;27609;51.002;5.354;2023-05-17T02:34:28;6.90;99.90
41922;DHT22;27609;51.002;5.354;2023-05-17T02:36:53;7.10;99.90
41922;DHT22;27609;51.002;5.354;2023-05-17T02:39:19;7.10;99.90
41922;DHT22;27609;51.002;5.354;2023-05-17T02:41:45;7.10;99.90
41922;DHT22;27609;51.002;5.354;2023-05-17T02:44:11;7.10;99.90
41922;DHT22;27609;51.002;5.354;2023-05-17T02:46:37;7.10;99.90
41922;DHT22;27609;51.002;5.354;2023-05-17T02:49:02;7.10;99.90
41922;DHT22;27609;51.002;5.354;2023-05-17T02:51:28;6.90;99.90
41922;DHT22;27609;51.002;5.354;2023-05-17T02:53:54;6.90;99.90
41922;DHT22;27609;51.002;5.354;2023-05-17T02:56:20;6.90;99.90
41922;DHT22;27609;51.002;5.354;2023-05-17T02:58:45;7.00;99.90
41922;DHT22;27609;51.002;5.354;2023-05-17T03:01:11;7.00;99.90
41922;DHT22;27609;51.002;5.354;2023-05-17T03:03:37;7.00;99.90
41922;DHT22;27609;51.002;5.354;2023-05-17T03:06:02;7.00;99.90
41922;DHT22;27609;51.002;5.354;2023-05-17T03:08:29;7.10;99.90
41922;DHT22;27609;51.002;5.354;2023-05-17T03:10:55;7.00;99.90
41922;DHT22;27609;51.002;5.354;2023-05-17T03:13:21;6.70;99.90
41922;DHT22;27609;51.002;5.354;2023-05-17T03:15:47;6.50;99.90
41922;DHT22;27609;51.002;5.354;2023-05-17T03:18:13;6.60;99.90
41922;DHT22;27609;51.002;5.354;2023-05-17T03:20:39;6.50;99.90
41922;DHT22;27609;51.002;5.354;2023-05-17T03:23:04;6.70;99.90
41922;DHT22;27609;51.002;5.354;2023-05-17T03:25:30;6.90;99.90
41922;DHT22;27609;51.002;5.354;2023-05-17T03:27:56;7.00;99.90
41922;DHT22;27609;51.002;5.354;2023-05-17T03:30:21;6.90;99.90
41922;DHT22;27609;51.002;5.354;2023-05-17T03:32:47;6.90;99.90
41922;DHT22;27609;51.002;5.354;2023-05-17T03:35:13;6.90;99.90
41922;DHT22;27609;51.002;5.354;2023-05-17T03:37:38;6.70;99.90
41922;DHT22;27609;51.002;5.354;2023-05-17T03:40:05;6.60;99.90
41922;DHT22;27609;51.002;5.354;2023-05-17T03:42:30;6.50;99.90
41922;DHT22;27609;51.002;5.354;2023-05-17T03:44:56;6.50;99.90
41922;DHT22;27609;51.002;5.354;2023-05-17T03:47:22;6.60;99.90
41922;DHT22;27609;51.002;5.354;2023-05-17T03:49:48;6.70;99.90
41922;DHT22;27609;51.002;5.354;2023-05-17T03:52:14;6.70;99.90
41922;DHT22;27609;51.002;5.354;2023-05-17T03:54:40;6.70;99.90
41922;DHT22;27609;51.002;5.354;2023-05-17T03:57:06;6.80;99.90
41922;DHT22;27609;51.002;5.354;2023-05-17T03:59:31;7.00;99.90
41922;DHT22;27609;51.002;5.354;2023-05-17T04:01:57;7.00;99.90
41922;DHT22;27609;51.002;5.354;2023-05-17T04:04:23;7.10;99.90
41922;DHT22;27609;51.002;5.354;2023-05-17T04:06:48;7.20;99.90
41922;DHT22;27609;51.002;5.354;2023-05-17T04:09:14;7.20;99.90
41922;DHT22;27609;51.002;5.354;2023-05-17T04:11:41;7.10;99.90
41922;DHT22;27609;51.002;5.354;2023-05-17T04:14:07;7.00;99.90
41922;DHT22;27609;51.002;5.354;2023-05-17T04:16:32;6.70;99.90
41922;DHT22;27609;51.002;5.354;2023-05-17T04:18:59;6.60;99.90
41922;DHT22;27609;51.002;5.354;2023-05-17T04:21:25;6.70;99.90
41922;DHT22;27609;51.002;5.354;2023-05-17T04:23:51;6.90;99.90
41922;DHT22;27609;51.002;5.354;2023-05-17T04:26:17;7.00;99.90
41922;DHT22;27609;51.002;5.354;2023-05-17T04:28:43;7.20;99.90
41922;DHT22;27609;51.002;5.354;2023-05-17T04:31:09;7.30;99.90
41922;DHT22;27609;51.002;5.354;2023-05-17T04:33:35;7.30;99.90
41922;DHT22;27609;51.002;5.354;2023-05-17T04:36:01;7.20;99.90
41922;DHT22;27609;51.002;5.354;2023-05-17T04:38:28;7.10;99.90
41922;DHT22;27609;51.002;5.354;2023-05-17T04:40:59;7.10;99.90
41922;DHT22;27609;51.002;5.354;2023-05-17T04:43:25;7.10;99.90
41922;DHT22;27609;51.002;5.354;2023-05-17T04:45:55;7.30;99.90
41922;DHT22;27609;51.002;5.354;2023-05-17T04:48:22;7.60;99.90
41922;DHT22;27609;51.002;5.354;2023-05-17T04:50:47;7.90;99.90
41922;DHT22;27609;51.002;5.354;2023-05-17T04:53:13;8.10;99.90
41922;DHT22;27609;51.002;5.354;2023-05-17T04:55:40;8.30;99.90
41922;DHT22;27609;51.002;5.354;2023-05-17T04:58:06;8.50;99.90
41922;DHT22;27609;51.002;5.354;2023-05-17T05:00:31;8.60;99.90
41922;DHT22;27609;51.002;5.354;2023-05-17T05:02:57;8.40;99.90
41922;DHT22;27609;51.002;5.354;2023-05-17T05:05:23;8.50;99.90
41922;DHT22;27609;51.002;5.354;2023-05-17T05:07:50;8.70;99.90
41922;DHT22;27609;51.002;5.354;2023-05-17T05:10:15;8.80;99.90
41922;DHT22;27609;51.002;5.354;2023-05-17T05:12:41;8.90;99.90
41922;DHT22;27609;51.002;5.354;2023-05-17T05:15:08;9.10;99.90
41922;DHT22;27609;51.002;5.354;2023-05-17T05:17:34;9.10;99.90
41922;DHT22;27609;51.002;5.354;2023-05-17T05:19:59;9.10;99.90
41922;DHT22;27609;51.002;5.354;2023-05-17T05:22:25;8.90;99.90
41922;DHT22;27609;51.002;5.354;2023-05-17T05:24:51;9.10;99.90
41922;DHT22;27609;51.002;5.354;2023-05-17T05:27:17;9.50;99.90
41922;DHT22;27609;51.002;5.354;2023-05-17T05:29:42;9.40;99.90
41922;DHT22;27609;51.002;5.354;2023-05-17T05:32:08;9.40;99.90
41922;DHT22;27609;51.002;5.354;2023-05-17T05:34:34;9.30;99.90
41922;DHT22;27609;51.002;5.354;2023-05-17T05:36:59;9.40;99.90
41922;DHT22;27609;51.002;5.354;2023-05-17T05:39:25;9.60;99.90
41922;DHT22;27609;51.002;5.354;2023-05-17T05:41:52;9.90;99.90
41922;DHT22;27609;51.002;5.354;2023-05-17T05:44:18;9.90;99.90
41922;DHT22;27609;51.002;5.354;2023-05-17T05:46:43;10.20;99.90
41922;DHT22;27609;51.002;5.354;2023-05-17T05:49:09;10.50;99.90
41922;DHT22;27609;51.002;5.354;2023-05-17T05:51:35;10.70;99.90
41922;DHT22;27609;51.002;5.354;2023-05-17T05:54:01;10.90;99.90
41922;DHT22;27609;51.002;5.354;2023-05-17T05:56:26;10.80;99.90
41922;DHT22;27609;51.002;5.354;2023-05-17T05:58:56;10.90;99.90
41922;DHT22;27609;51.002;5.354;2023-05-17T06:01:22;11.40;99.90
41922;DHT22;27609;51.002;5.354;2023-05-17T06:03:49;11.80;99.90
41922;DHT22;27609;51.002;5.354;2023-05-17T06:06:15;12.50;99.90
41922;DHT22;27609;51.002;5.354;2023-05-17T06:08:43;13.00;99.90
41922;DHT22;27609;51.002;5.354;2023-05-17T06:11:12;13.90;99.90
41922;DHT22;27609;51.002;5.354;2023-05-17T06:13:38;14.60;99.90
41922;DHT22;27609;51.002;5.354;2023-05-17T06:16:04;14.50;99.90
41922;DHT22;27609;51.002;5.354;2023-05-17T06:18:30;14.80;99.90
41922;DHT22;27609;51.002;5.354;2023-05-17T06:20:56;15.10;99.90
41922;DHT22;27609;51.002;5.354;2023-05-17T06:23:22;15.90;99.90
41922;DHT22;27609;51.002;5.354;2023-05-17T06:25:48;16.60;99.90
41922;DHT22;27609;51.002;5.354;2023-05-17T06:28:13;17.10;99.90
41922;DHT22;27609;51.002;5.354;2023-05-17T06:30:39;17.50;99.90
41922;DHT22;27609;51.002;5.354;2023-05-17T06:33:05;18.00;99.90
41922;DHT22;27609;51.002;5.354;2023-05-17T06:35:31;18.70;99.90
41922;DHT22;27609;51.002;5.354;2023-05-17T06:37:57;19.00;99.90
41922;DHT22;27609;51.002;5.354;2023-05-17T06:40:25;19.20;99.90
41922;DHT22;27609;51.002;5.354;2023-05-17T06:42:51;19.40;99.90
41922;DHT22;27609;51.002;5.354;2023-05-17T06:45:16;19.50;99.90
41922;DHT22;27609;51.002;5.354;2023-05-17T06:47:42;20.60;99.90
41922;DHT22;27609;51.002;5.354;2023-05-17T06:50:08;21.50;99.90
41922;DHT22;27609;51.002;5.354;2023-05-17T06:52:35;21.70;99.90
41922;DHT22;27609;51.002;5.354;2023-05-17T06:55:01;21.80;99.90
41922;DHT22;27609;51.002;5.354;2023-05-17T06:57:26;21.70;99.90
41922;DHT22;27609;51.002;5.354;2023-05-17T06:59:52;21.90;99.90
41922;DHT22;27609;51.002;5.354;2023-05-17T07:02:18;21.40;99.90
41922;DHT22;27609;51.002;5.354;2023-05-17T07:04:44;21.00;99.90
41922;DHT22;27609;51.002;5.354;2023-05-17T07:07:09;20.40;99.90
41922;DHT22;27609;51.002;5.354;2023-05-17T07:09:36;20.50;99.90
41922;DHT22;27609;51.002;5.354;2023-05-17T07:12:03;20.80;99.90
41922;DHT22;27609;51.002;5.354;2023-05-17T07:14:29;21.00;99.90
41922;DHT22;27609;51.002;5.354;2023-05-17T07:16:54;20.30;99.90
41922;DHT22;27609;51.002;5.354;2023-05-17T07:19:20;20.70;99.90
41922;DHT22;27609;51.002;5.354;2023-05-17T07:21:46;20.50;99.90
41922;DHT22;27609;51.002;5.354;2023-05-17T07:24:12;20.00;99.90
41922;DHT22;27609;51.002;5.354;2023-05-17T07:26:37;20.40;99.90
41922;DHT22;27609;51.002;5.354;2023-05-17T07:29:03;20.70;99.90
41922;DHT22;27609;51.002;5.354;2023-05-17T07:31:29;22.00;99.90
41922;DHT22;27609;51.002;5.354;2023-05-17T07:33:55;23.90;99.90
41922;DHT22;27609;51.002;5.354;2023-05-17T07:36:20;24.60;99.90
41922;DHT22;27609;51.002;5.354;2023-05-17T07:38:46;25.40;97.10
41922;DHT22;27609;51.002;5.354;2023-05-17T07:41:12;25.30;95.40
41922;DHT22;27609;51.002;5.354;2023-05-17T07:43:41;24.00;95.60
41922;DHT22;27609;51.002;5.354;2023-05-17T07:46:07;21.40;99.40
41922;DHT22;27609;51.002;5.354;2023-05-17T07:48:32;20.80;99.90
41922;DHT22;27609;51.002;5.354;2023-05-17T07:50:58;21.20;99.90
41922;DHT22;27609;51.002;5.354;2023-05-17T07:53:24;22.60;99.50
41922;DHT22;27609;51.002;5.354;2023-05-17T07:55:50;21.70;99.20
41922;DHT22;27609;51.002;5.354;2023-05-17T07:58:16;22.10;98.60
41922;DHT22;27609;51.002;5.354;2023-05-17T08:00:42;22.20;98.90
41922;DHT22;27609;51.002;5.354;2023-05-17T08:03:07;22.60;97.20
41922;DHT22;27609;51.002;5.354;2023-05-17T08:05:33;24.30;95.20
41922;DHT22;27609;51.002;5.354;2023-05-17T08:07:59;25.20;93.20
41922;DHT22;27609;51.002;5.354;2023-05-17T08:10:28;25.50;92.00
41922;DHT22;27609;51.002;5.354;2023-05-17T08:12:54;24.70;91.50
41922;DHT22;27609;51.002;5.354;2023-05-17T08:15:20;22.90;93.40
41922;DHT22;27609;51.002;5.354;2023-05-17T08:17:45;21.40;95.30
41922;DHT22;27609;51.002;5.354;2023-05-17T08:20:11;22.10;93.20
41922;DHT22;27609;51.002;5.354;2023-05-17T08:22:37;22.80;93.00
41922;DHT22;27609;51.002;5.354;2023-05-17T08:25:03;22.80;93.30
41922;DHT22;27609;51.002;5.354;2023-05-17T08:27:29;22.80;92.40
41922;DHT22;27609;51.002;5.354;2023-05-17T08:29:59;22.60;92.70
41922;DHT22;27609;51.002;5.354;2023-05-17T08:32:25;22.60;93.10
41922;DHT22;27609;51.002;5.354;2023-05-17T08:34:51;22.90;92.50
41922;DHT22;27609;51.002;5.354;2023-05-17T08:37:19;22.60;92.90
41922;DHT22;27609;51.002;5.354;2023-05-17T08:39:45;22.20;91.90
41922;DHT22;27609;51.002;5.354;2023-05-17T08:42:14;22.30;91.80
41922;DHT22;27609;51.002;5.354;2023-05-17T08:44:42;22.40;93.00
41922;DHT22;27609;51.002;5.354;2023-05-17T08:47:09;23.00;90.60
41922;DHT22;27609;51.002;5.354;2023-05-17T08:49:36;22.90;90.70
41922;DHT22;27609;51.002;5.354;2023-05-17T08:52:03;25.00;86.00
41922;DHT22;27609;51.002;5.354;2023-05-17T08:54:37;26.60;82.90
41922;DHT22;27609;51.002;5.354;2023-05-17T08:57:03;26.90;80.60
41922;DHT22;27609;51.002;5.354;2023-05-17T08:59:31;26.10;82.40
41922;DHT22;27609;51.002;5.354;2023-05-17T09:02:00;27.60;80.10
41922;DHT22;27609;51.002;5.354;2023-05-17T09:04:27;29.70;75.90
41922;DHT22;27609;51.002;5.354;2023-05-17T09:06:53;28.30;74.00
41922;DHT22;27609;51.002;5.354;2023-05-17T09:09:19;27.80;67.00
41922;DHT22;27609;51.002;5.354;2023-05-17T09:11:46;28.70;67.90
41922;DHT22;27609;51.002;5.354;2023-05-17T09:14:14;29.00;66.00
41922;DHT22;27609;51.002;5.354;2023-05-17T09:16:43;30.20;64.60
41922;DHT22;27609;51.002;5.354;2023-05-17T09:19:14;32.20;62.20
41922;DHT22;27609;51.002;5.354;2023-05-17T09:21:47;30.80;58.40
41922;DHT22;27609;51.002;5.354;2023-05-17T09:24:13;31.50;57.40
41922;DHT22;27609;51.002;5.354;2023-05-17T09:26:40;30.40;58.70
41922;DHT22;27609;51.002;5.354;2023-05-17T09:29:10;30.40;57.20
41922;DHT22;27609;51.002;5.354;2023-05-17T09:31:36;30.60;57.60
41922;DHT22;27609;51.002;5.354;2023-05-17T09:34:02;30.40;55.70
41922;DHT22;27609;51.002;5.354;2023-05-17T09:36:27;29.50;56.00
41922;DHT22;27609;51.002;5.354;2023-05-17T09:38:58;28.90;58.30
41922;DHT22;27609;51.002;5.354;2023-05-17T09:41:29;29.50;57.00
41922;DHT22;27609;51.002;5.354;2023-05-17T09:44:06;29.90;58.00
41922;DHT22;27609;51.002;5.354;2023-05-17T09:46:34;28.30;57.10
41922;DHT22;27609;51.002;5.354;2023-05-17T09:49:01;28.80;55.90
41922;DHT22;27609;51.002;5.354;2023-05-17T09:51:40;27.50;56.10
41922;DHT22;27609;51.002;5.354;2023-05-17T09:54:07;27.40;59.50
41922;DHT22;27609;51.002;5.354;2023-05-17T09:56:33;28.80;59.10
41922;DHT22;27609;51.002;5.354;2023-05-17T09:59:13;27.90;59.20
41922;DHT22;27609;51.002;5.354;2023-05-17T10:01:40;28.20;61.90
41922;DHT22;27609;51.002;5.354;2023-05-17T10:04:10;30.50;56.20
41922;DHT22;27609;51.002;5.354;2023-05-17T10:06:39;30.00;58.60
41922;DHT22;27609;51.002;5.354;2023-05-17T10:09:06;29.70;55.60
41922;DHT22;27609;51.002;5.354;2023-05-17T10:11:36;28.60;56.70
41922;DHT22;27609;51.002;5.354;2023-05-17T10:16:40;26.90;60.80
41922;DHT22;27609;51.002;5.354;2023-05-17T10:19:08;30.00;56.70
41922;DHT22;27609;51.002;5.354;2023-05-17T10:21:36;32.00;54.10
41922;DHT22;27609;51.002;5.354;2023-05-17T10:24:02;33.50;51.90
41922;DHT22;27609;51.002;5.354;2023-05-17T10:26:28;35.50;50.10
41922;DHT22;27609;51.002;5.354;2023-05-17T10:28:57;34.60;50.50
41922;DHT22;27609;51.002;5.354;2023-05-17T10:31:29;34.60;51.30
41922;DHT22;27609;51.002;5.354;2023-05-17T10:33:55;31.30;53.40
41922;DHT22;27609;51.002;5.354;2023-05-17T10:36:23;32.00;52.10
41922;DHT22;27609;51.002;5.354;2023-05-17T10:38:50;33.60;52.50
41922;DHT22;27609;51.002;5.354;2023-05-17T10:41:18;31.70;50.50
41922;DHT22;27609;51.002;5.354;2023-05-17T10:43:46;29.80;52.60
41922;DHT22;27609;51.002;5.354;2023-05-17T10:46:17;30.80;51.90
41922;DHT22;27609;51.002;5.354;2023-05-17T10:48:47;31.50;51.70
41922;DHT22;27609;51.002;5.354;2023-05-17T10:51:13;31.50;51.80
41922;DHT22;27609;51.002;5.354;2023-05-17T10:54:04;29.10;54.30
41922;DHT22;27609;51.002;5.354;2023-05-17T10:56:31;28.00;56.00
41922;DHT22;27609;51.002;5.354;2023-05-17T10:59:20;29.10;57.70
41922;DHT22;27609;51.002;5.354;2023-05-17T11:04:35;31.10;52.30
41922;DHT22;27609;51.002;5.354;2023-05-17T11:07:20;32.50;54.20
41922;DHT22;27609;51.002;5.354;2023-05-17T11:10:03;32.80;50.90
41922;DHT22;27609;51.002;5.354;2023-05-17T11:12:46;33.30;51.30
41922;DHT22;27609;51.002;5.354;2023-05-17T11:15:23;32.90;49.40
41922;DHT22;27609;51.002;5.354;2023-05-17T11:17:51;29.20;51.90
41922;DHT22;27609;51.002;5.354;2023-05-17T11:23:11;29.80;55.60
41922;DHT22;27609;51.002;5.354;2023-05-17T11:25:40;32.40;51.40
41922;DHT22;27609;51.002;5.354;2023-05-17T11:28:18;33.10;49.40
41922;DHT22;27609;51.002;5.354;2023-05-17T11:30:44;34.40;50.10
41922;DHT22;27609;51.002;5.354;2023-05-17T11:33:15;31.70;49.50
41922;DHT22;27609;51.002;5.354;2023-05-17T11:35:43;33.20;49.70
41922;DHT22;27609;51.002;5.354;2023-05-17T11:38:26;33.40;49.20
41922;DHT22;27609;51.002;5.354;2023-05-17T11:40:55;33.20;48.90
41922;DHT22;27609;51.002;5.354;2023-05-17T11:43:25;31.60;49.60
41922;DHT22;27609;51.002;5.354;2023-05-17T11:45:56;31.30;50.00
41922;DHT22;27609;51.002;5.354;2023-05-17T11:48:23;31.20;48.40
41922;DHT22;27609;51.002;5.354;2023-05-17T11:50:50;29.70;49.70
41922;DHT22;27609;51.002;5.354;2023-05-17T11:53:17;29.00;51.40
41922;DHT22;27609;51.002;5.354;2023-05-17T11:55:45;28.80;53.80
41922;DHT22;27609;51.002;5.354;2023-05-17T11:58:16;30.60;50.40
41922;DHT22;27609;51.002;5.354;2023-05-17T12:00:42;30.70;50.30
41922;DHT22;27609;51.002;5.354;2023-05-17T12:03:17;30.70;50.00
41922;DHT22;27609;51.002;5.354;2023-05-17T12:05:44;32.60;48.70
41922;DHT22;27609;51.002;5.354;2023-05-17T12:08:10;32.90;47.80
41922;DHT22;27609;51.002;5.354;2023-05-17T12:10:36;33.30;48.10
41922;DHT22;27609;51.002;5.354;2023-05-17T12:13:02;34.80;50.30
41922;DHT22;27609;51.002;5.354;2023-05-17T12:15:29;35.00;48.40
41922;DHT22;27609;51.002;5.354;2023-05-17T12:17:56;32.10;48.50
41922;DHT22;27609;51.002;5.354;2023-05-17T12:20:22;31.20;48.10
41922;DHT22;27609;51.002;5.354;2023-05-17T12:22:57;32.20;47.60
41922;DHT22;27609;51.002;5.354;2023-05-17T12:25:23;31.70;50.80
41922;DHT22;27609;51.002;5.354;2023-05-17T12:28:13;32.30;48.80
41922;DHT22;27609;51.002;5.354;2023-05-17T12:30:39;31.40;48.80
41922;DHT22;27609;51.002;5.354;2023-05-17T12:33:06;32.60;47.70
41922;DHT22;27609;51.002;5.354;2023-05-17T12:35:33;31.40;49.60
41922;DHT22;27609;51.002;5.354;2023-05-17T12:37:59;29.70;52.80
41922;DHT22;27609;51.002;5.354;2023-05-17T12:40:27;29.40;50.60
41922;DHT22;27609;51.002;5.354;2023-05-17T12:43:01;29.30;52.40
41922;DHT22;27609;51.002;5.354;2023-05-17T12:45:28;30.60;50.40
41922;DHT22;27609;51.002;5.354;2023-05-17T12:47:53;31.20;48.50
41922;DHT22;27609;51.002;5.354;2023-05-17T12:50:28;30.10;49.80
41922;DHT22;27609;51.002;5.354;2023-05-17T12:52:57;29.10;51.50
41922;DHT22;27609;51.002;5.354;2023-05-17T12:55:23;27.60;52.90
41922;DHT22;27609;51.002;5.354;2023-05-17T12:57:51;27.30;51.70
41922;DHT22;27609;51.002;5.354;2023-05-17T13:00:17;28.40;51.10
41922;DHT22;27609;51.002;5.354;2023-05-17T13:02:43;29.90;52.30
41922;DHT22;27609;51.002;5.354;2023-05-17T13:05:18;30.70;50.90
41922;DHT22;27609;51.002;5.354;2023-05-17T13:07:47;30.90;47.40
41922;DHT22;27609;51.002;5.354;2023-05-17T13:10:20;31.70;48.40
41922;DHT22;27609;51.002;5.354;2023-05-17T13:12:56;31.50;49.90
41922;DHT22;27609;51.002;5.354;2023-05-17T13:15:30;32.00;51.50
41922;DHT22;27609;51.002;5.354;2023-05-17T13:17:56;31.80;48.20
41922;DHT22;27609;51.002;5.354;2023-05-17T13:20:22;31.10;49.10
41922;DHT22;27609;51.002;5.354;2023-05-17T13:22:48;29.80;49.00
41922;DHT22;27609;51.002;5.354;2023-05-17T13:25:14;29.50;51.10
41922;DHT22;27609;51.002;5.354;2023-05-17T13:27:40;28.80;48.80
41922;DHT22;27609;51.002;5.354;2023-05-17T13:30:16;27.50;50.90
41922;DHT22;27609;51.002;5.354;2023-05-17T13:32:42;27.30;50.60
41922;DHT22;27609;51.002;5.354;2023-05-17T13:35:08;26.80;51.90
41922;DHT22;27609;51.002;5.354;2023-05-17T13:37:34;26.80;53.30
41922;DHT22;27609;51.002;5.354;2023-05-17T13:40:03;27.20;52.70
41922;DHT22;27609;51.002;5.354;2023-05-17T13:42:29;28.10;54.40
41922;DHT22;27609;51.002;5.354;2023-05-17T13:44:56;28.30;49.60
41922;DHT22;27609;51.002;5.354;2023-05-17T13:47:22;28.60;50.20
41922;DHT22;27609;51.002;5.354;2023-05-17T13:49:48;28.40;50.00
41922;DHT22;27609;51.002;5.354;2023-05-17T13:52:13;27.30;49.80
41922;DHT22;27609;51.002;5.354;2023-05-17T13:54:39;26.50;50.30
41922;DHT22;27609;51.002;5.354;2023-05-17T13:57:05;26.60;52.90
41922;DHT22;27609;51.002;5.354;2023-05-17T13:59:32;26.00;51.50
41922;DHT22;27609;51.002;5.354;2023-05-17T14:01:58;26.40;51.90
41922;DHT22;27609;51.002;5.354;2023-05-17T14:04:24;26.00;52.90
41922;DHT22;27609;51.002;5.354;2023-05-17T14:06:50;25.80;53.30
41922;DHT22;27609;51.002;5.354;2023-05-17T14:09:16;24.90;53.10
41922;DHT22;27609;51.002;5.354;2023-05-17T14:11:42;25.40;53.40
41922;DHT22;27609;51.002;5.354;2023-05-17T14:14:07;25.10;53.80
41922;DHT22;27609;51.002;5.354;2023-05-17T14:16:33;24.90;53.20
41922;DHT22;27609;51.002;5.354;2023-05-17T14:18:59;24.90;55.80
41922;DHT22;27609;51.002;5.354;2023-05-17T14:21:25;24.90;56.10
41922;DHT22;27609;51.002;5.354;2023-05-17T14:23:50;25.30;53.30
41922;DHT22;27609;51.002;5.354;2023-05-17T14:26:16;25.20;56.50
41922;DHT22;27609;51.002;5.354;2023-05-17T14:28:42;25.20;54.80
41922;DHT22;27609;51.002;5.354;2023-05-17T14:31:08;24.90;55.30
41922;DHT22;27609;51.002;5.354;2023-05-17T14:33:35;24.00;53.20
41922;DHT22;27609;51.002;5.354;2023-05-17T14:36:01;24.40;57.70
41922;DHT22;27609;51.002;5.354;2023-05-17T14:38:28;24.90;57.10
41922;DHT22;27609;51.002;5.354;2023-05-17T14:40:54;25.10;55.60
41922;DHT22;27609;51.002;5.354;2023-05-17T14:43:20;25.10;56.20
41922;DHT22;27609;51.002;5.354;2023-05-17T14:45:46;25.00;58.00
41922;DHT22;27609;51.002;5.354;2023-05-17T14:48:11;25.10;55.30
41922;DHT22;27609;51.002;5.354;2023-05-17T14:50:37;24.80;55.00
41922;DHT22;27609;51.002;5.354;2023-05-17T14:53:03;24.20;55.80
41922;DHT22;27609;51.002;5.354;2023-05-17T14:55:28;23.70;56.50
41922;DHT22;27609;51.002;5.354;2023-05-17T14:57:55;23.70;60.20
41922;DHT22;27609;51.002;5.354;2023-05-17T15:00:22;23.60;58.80
41922;DHT22;27609;51.002;5.354;2023-05-17T15:02:49;23.80;57.00
41922;DHT22;27609;51.002;5.354;2023-05-17T15:05:15;23.20;54.60
41922;DHT22;27609;51.002;5.354;2023-05-17T15:07:42;23.20;57.00
41922;DHT22;27609;51.002;5.354;2023-05-17T15:10:08;22.80;56.50
41922;DHT22;27609;51.002;5.354;2023-05-17T15:12:35;22.40;58.00
41922;DHT22;27609;51.002;5.354;2023-05-17T15:15:01;22.20;58.10
41922;DHT22;27609;51.002;5.354;2023-05-17T15:17:27;21.30;58.90
41922;DHT22;27609;51.002;5.354;2023-05-17T15:19:53;20.90;64.10
41922;DHT22;27609;51.002;5.354;2023-05-17T15:22:19;21.60;60.30
41922;DHT22;27609;51.002;5.354;2023-05-17T15:24:45;22.00;56.80
41922;DHT22;27609;51.002;5.354;2023-05-17T15:27:11;22.30;60.20
41922;DHT22;27609;51.002;5.354;2023-05-17T15:29:42;22.40;60.30
41922;DHT22;27609;51.002;5.354;2023-05-17T15:32:07;22.40;61.40
41922;DHT22;27609;51.002;5.354;2023-05-17T15:34:33;22.40;57.80
41922;DHT22;27609;51.002;5.354;2023-05-17T15:36:59;21.80;59.00
41922;DHT22;27609;51.002;5.354;2023-05-17T15:39:26;21.70;59.20
41922;DHT22;27609;51.002;5.354;2023-05-17T15:41:52;21.60;56.80
41922;DHT22;27609;51.002;5.354;2023-05-17T15:44:18;21.20;58.50
41922;DHT22;27609;51.002;5.354;2023-05-17T15:46:44;20.90;57.80
41922;DHT22;27609;51.002;5.354;2023-05-17T15:49:10;20.20;60.80
41922;DHT22;27609;51.002;5.354;2023-05-17T15:51:36;20.10;59.00
41922;DHT22;27609;51.002;5.354;2023-05-17T15:54:02;20.00;61.90
41922;DHT22;27609;51.002;5.354;2023-05-17T15:56:27;20.00;59.80